createdAt,value
2023-04-13T00:01:03.003Z,5.00
2023-04-13T00:03:33.440Z,3.20
2023-04-13T00:06:03.175Z,3.30
2023-04-13T00:08:36.822Z,4.50
2023-04-13T00:11:05.967Z,4.40
2023-04-13T00:13:41.411Z,3.10
2023-04-13T00:16:15.408Z,4.10
2023-04-13T00:18:45.859Z,4.70
2023-04-13T00:21:17.312Z,4.30
2023-04-13T00:23:45.582Z,5.20
2023-04-13T00:26:15.808Z,4.40
2023-04-13T00:28:45.115Z,4.50
2023-04-13T00:31:13.361Z,4.90
2023-04-13T00:33:41.752Z,4.70
2023-04-13T00:36:10.144Z,6.70
2023-04-13T00:38:38.357Z,6.30
2023-04-13T00:41:07.077Z,6.30
2023-04-13T00:43:37.096Z,7.40
2023-04-13T00:46:05.731Z,6.30
2023-04-13T00:48:37.315Z,6.10
2023-04-13T00:51:05.977Z,6.30
2023-04-13T00:53:34.687Z,6.50
2023-04-13T00:56:06.179Z,4.60
2023-04-13T00:58:34.955Z,4.00
2023-04-13T01:01:03.633Z,4.30
2023-04-13T01:03:32.614Z,5.40
2023-04-13T01:06:21.383Z,6.00
2023-04-13T01:08:53.844Z,6.90
2023-04-13T01:11:24.663Z,4.70
2023-04-13T01:13:56.947Z,4.80
2023-04-13T01:16:34.507Z,4.50
2023-04-13T01:19:06.232Z,4.80
2023-04-13T01:21:35.738Z,6.80
2023-04-13T01:24:25.761Z,8.20
2023-04-13T01:26:57.707Z,4.00
2023-04-13T01:29:26.375Z,4.00
2023-04-13T01:31:55.092Z,4.00
2023-04-13T01:34:23.457Z,5.40
2023-04-13T01:36:51.627Z,6.30
2023-04-13T01:39:20.551Z,4.90
2023-04-13T01:41:52.483Z,4.30
2023-04-13T01:44:22.974Z,6.80
2023-04-13T01:46:52.972Z,6.00
2023-04-13T01:49:49.218Z,4.30
2023-04-13T01:52:48.728Z,5.00
2023-04-13T01:55:17.456Z,3.60
2023-04-13T01:57:54.442Z,3.90
2023-04-13T02:01:20.239Z,6.00
2023-04-13T02:04:03.778Z,3.40
2023-04-13T02:06:37.018Z,4.00
2023-04-13T02:09:10.138Z,3.80
2023-04-13T02:11:38.414Z,4.40
2023-04-13T02:14:17.136Z,4.40
2023-04-13T02:16:45.784Z,3.90
2023-04-13T02:19:15.457Z,3.50
2023-04-13T02:21:43.617Z,4.50
2023-04-13T02:24:12.530Z,3.70
2023-04-13T02:26:43.812Z,4.30
2023-04-13T02:29:12.105Z,4.60
2023-04-13T02:31:52.676Z,3.90
2023-04-13T02:34:20.962Z,4.40
2023-04-13T02:36:49.188Z,5.70
2023-04-13T02:39:18.494Z,6.70
2023-04-13T02:41:48.614Z,5.70
2023-04-13T02:44:21.690Z,5.40
2023-04-13T02:46:54.535Z,6.70
2023-04-13T02:49:24.600Z,8.50
2023-04-13T02:52:13.098Z,25.70
2023-04-13T02:54:54.563Z,16.10
2023-04-13T02:57:25.353Z,10.50
2023-04-13T02:59:54.132Z,9.00
2023-04-13T03:02:26.841Z,14.80
2023-04-13T03:04:56.255Z,16.20
2023-04-13T03:07:26.021Z,13.60
2023-04-13T03:09:55.467Z,12.60
2023-04-13T03:12:27.246Z,9.50
2023-04-13T03:14:55.628Z,6.50
2023-04-13T03:17:30.354Z,6.00
2023-04-13T03:19:58.901Z,11.50
2023-04-13T03:22:30.677Z,13.60
2023-04-13T03:25:03.629Z,13.90
2023-04-13T03:27:36.510Z,10.80
2023-04-13T03:30:05.408Z,12.60
2023-04-13T03:32:40.253Z,11.90
2023-04-13T03:35:08.884Z,11.50
2023-04-13T03:37:42.923Z,6.50
2023-04-13T03:40:20.512Z,5.20
2023-04-13T03:42:51.955Z,5.00
2023-04-13T03:45:21.050Z,2.80
2023-04-13T03:47:50.231Z,3.60
2023-04-13T03:50:21.871Z,6.40
2023-04-13T03:52:52.229Z,7.10
2023-04-13T03:55:20.428Z,4.90
2023-04-13T03:57:53.465Z,4.10
2023-04-13T04:00:25.310Z,3.70
2023-04-13T04:03:17.749Z,4.50
2023-04-13T04:05:54.358Z,4.90
2023-04-13T04:08:24.403Z,3.90
2023-04-13T04:11:02.225Z,7.10
2023-04-13T04:13:31.962Z,10.00
2023-04-13T04:16:04.796Z,16.20
2023-04-13T04:18:35.015Z,10.30
2023-04-13T04:21:03.928Z,16.40
2023-04-13T04:23:34.996Z,16.60
2023-04-13T04:26:06.314Z,12.50
2023-04-13T04:28:44.137Z,11.50
2023-04-13T04:31:18.233Z,13.70
2023-04-13T04:33:48.051Z,9.90
2023-04-13T04:36:16.767Z,7.80
2023-04-13T04:39:02.934Z,10.60
2023-04-13T04:41:37.957Z,12.30
2023-04-13T04:44:09.882Z,9.50
2023-04-13T04:46:43.756Z,9.50
2023-04-13T04:49:14.964Z,12.00
2023-04-13T04:51:44.803Z,8.80
2023-04-13T04:54:17.040Z,6.80
2023-04-13T04:56:47.506Z,7.80
2023-04-13T04:59:18.334Z,8.40
2023-04-13T05:01:56.776Z,9.70
2023-04-13T05:04:24.996Z,8.30
2023-04-13T05:06:53.898Z,7.70
2023-04-13T05:09:26.848Z,9.60
2023-04-13T05:11:58.130Z,10.00
2023-04-13T05:14:26.379Z,11.90
2023-04-13T05:16:54.745Z,13.10
2023-04-13T05:19:31.624Z,10.20
2023-04-13T05:22:11.922Z,10.50
2023-04-13T05:24:44.700Z,7.90
2023-04-13T05:27:16.074Z,7.70
2023-04-13T05:29:47.806Z,7.00
2023-04-13T05:32:18.931Z,7.90
2023-04-13T05:34:52.778Z,7.20
2023-04-13T05:37:32.877Z,6.70
2023-04-13T05:40:01.838Z,7.40
2023-04-13T05:42:34.177Z,6.60
2023-04-13T05:45:04.081Z,8.00
2023-04-13T05:47:34.579Z,7.70
2023-04-13T05:52:36.293Z,11.00
2023-04-13T05:55:04.694Z,14.10
2023-04-13T05:57:37.131Z,11.70
2023-04-13T06:00:10.671Z,11.90
2023-04-13T06:02:49.326Z,9.60
2023-04-13T06:05:18.461Z,8.20
2023-04-13T06:07:47.855Z,6.90
2023-04-13T06:10:16.945Z,418.40
2023-04-13T06:12:48.742Z,10.30
2023-04-13T06:15:22.604Z,6.10
2023-04-13T06:17:51.690Z,7.20
2023-04-13T06:20:20.320Z,5.70
2023-04-13T06:22:48.669Z,6.50
2023-04-13T06:25:17.226Z,7.20
2023-04-13T06:27:50.132Z,6.90
2023-04-13T06:30:19.522Z,7.50
2023-04-13T06:32:49.568Z,9.90
2023-04-13T06:35:23.311Z,36.80
2023-04-13T06:37:52.096Z,13.80
2023-04-13T06:40:32.844Z,8.50
2023-04-13T06:43:11.058Z,6.60
2023-04-13T06:45:57.012Z,6.80
2023-04-13T06:48:26.474Z,7.70
2023-04-13T06:50:57.783Z,6.40
2023-04-13T06:53:26.675Z,7.40
2023-04-13T06:55:55.385Z,6.40
2023-04-13T06:58:23.913Z,6.70
2023-04-13T07:00:53.177Z,14.30
2023-04-13T07:03:22.340Z,7.00
2023-04-13T07:05:50.607Z,6.20
2023-04-13T07:08:20.907Z,5.10
2023-04-13T07:10:53.875Z,4.70
2023-04-13T07:13:44.570Z,6.50
2023-04-13T07:16:13.759Z,7.00
2023-04-13T07:18:45.356Z,31.90
2023-04-13T07:21:19.120Z,159.60
2023-04-13T07:24:06.535Z,45.00
2023-04-13T07:26:41.750Z,58.10
2023-04-13T07:29:13.766Z,715.50
2023-04-13T07:31:45.251Z,935.50
2023-04-13T07:34:14.002Z,608.60
2023-04-13T07:36:46.285Z,57.10
2023-04-13T07:39:19.774Z,390.60
2023-04-13T07:41:49.463Z,453.80
2023-04-13T07:44:26.679Z,295.10
2023-04-13T07:46:55.988Z,83.00
2023-04-13T07:49:25.095Z,15.70
2023-04-13T07:51:54.832Z,9.80
2023-04-13T07:54:23.710Z,6.00
2023-04-13T07:56:52.296Z,8.80
2023-04-13T07:59:25.180Z,6.80
2023-04-13T08:01:54.610Z,5.60
2023-04-13T08:04:23.520Z,8.20
2023-04-13T08:06:54.731Z,7.60
2023-04-13T08:09:23.432Z,31.30
2023-04-13T08:11:51.851Z,17.00
2023-04-13T08:14:25.352Z,7.70
2023-04-13T08:16:54.441Z,34.90
2023-04-13T08:19:22.909Z,8.80
2023-04-13T08:21:53.152Z,7.10
2023-04-13T08:24:21.905Z,10.00
2023-04-13T08:26:50.135Z,6.90
2023-04-13T08:29:19.375Z,12.00
2023-04-13T08:31:53.109Z,15.00
2023-04-13T08:34:21.862Z,6.90
2023-04-13T08:36:50.577Z,8.00
2023-04-13T08:39:18.795Z,8.80
2023-04-13T08:41:48.519Z,9.00
2023-04-13T08:44:19.303Z,5.00
2023-04-13T08:46:52.827Z,5.30
2023-04-13T08:49:26.151Z,7.80
2023-04-13T08:52:14.546Z,5.60
2023-04-13T08:54:47.094Z,6.70
2023-04-13T08:57:24.815Z,7.20
2023-04-13T08:59:53.169Z,6.60
2023-04-13T09:02:24.648Z,14.20
2023-04-13T09:07:31.027Z,118.90
2023-04-13T09:10:02.874Z,23.50
2023-04-13T09:12:32.689Z,18.00
2023-04-13T09:15:01.888Z,19.70
2023-04-13T09:17:35.355Z,9.90
2023-04-13T09:20:32.012Z,14.10
2023-04-13T09:23:03.726Z,15.80
2023-04-13T09:25:33.692Z,12.60
2023-04-13T09:28:06.553Z,9.10
2023-04-13T09:30:34.930Z,8.60
2023-04-13T09:33:07.635Z,9.30
2023-04-13T09:35:36.709Z,9.50
2023-04-13T09:38:06.371Z,7.60
2023-04-13T09:40:38.460Z,8.70
2023-04-13T09:43:11.391Z,13.10
2023-04-13T09:45:44.739Z,9.00
2023-04-13T09:48:16.878Z,12.20
2023-04-13T09:50:45.129Z,21.80
2023-04-13T09:53:15.866Z,11.00
2023-04-13T09:55:47.526Z,14.00
2023-04-13T09:58:17.060Z,11.60
2023-04-13T10:00:46.618Z,12.00
2023-04-13T10:03:15.592Z,13.90
2023-04-13T10:08:27.388Z,12.40
2023-04-13T10:11:04.475Z,11.20
2023-04-13T10:13:38.625Z,13.10
2023-04-13T10:16:09.968Z,10.80
2023-04-13T10:18:51.876Z,10.50
2023-04-13T10:21:20.110Z,15.90
2023-04-13T10:23:48.348Z,12.50
2023-04-13T10:26:17.731Z,9.40
2023-04-13T10:28:47.151Z,10.90
2023-04-13T10:31:16.938Z,12.10
2023-04-13T10:33:49.312Z,10.60
2023-04-13T10:36:17.677Z,9.20
2023-04-13T10:38:47.110Z,9.30
2023-04-13T10:41:28.898Z,10.00
2023-04-13T10:44:08.051Z,9.70
2023-04-13T10:46:39.055Z,11.40
2023-04-13T10:49:08.396Z,11.10
2023-04-13T10:51:42.005Z,7.40
2023-04-13T10:54:11.157Z,10.90
2023-04-13T10:56:40.441Z,8.80
2023-04-13T10:59:08.905Z,10.00
2023-04-13T11:01:40.065Z,12.40
2023-04-13T11:04:11.651Z,93.40
2023-04-13T11:06:43.665Z,31.10
2023-04-13T11:09:16.097Z,12.20
2023-04-13T11:11:51.411Z,11.90
2023-04-13T11:14:24.061Z,10.40
2023-04-13T11:16:58.378Z,11.80
2023-04-13T11:21:58.333Z,13.80
2023-04-13T11:24:34.383Z,12.00
2023-04-13T11:27:04.011Z,17.90
2023-04-13T11:29:33.301Z,13.80
2023-04-13T11:32:02.285Z,22.90
2023-04-13T11:34:30.712Z,160.50
2023-04-13T11:37:00.717Z,390.80
2023-04-13T11:39:32.410Z,90.40
2023-04-13T11:42:07.192Z,343.40
2023-04-13T11:44:38.053Z,25.00
2023-04-13T11:47:10.981Z,14.20
2023-04-13T11:49:48.262Z,21.70
2023-04-13T11:52:30.707Z,16.90
2023-04-13T11:55:07.807Z,29.80
2023-04-13T11:57:48.477Z,18.60
2023-04-13T12:00:22.206Z,18.90
2023-04-13T12:03:01.824Z,15.90
2023-04-13T12:05:32.503Z,15.60
2023-04-13T12:08:09.817Z,17.00
2023-04-13T12:10:43.616Z,20.60
2023-04-13T12:13:34.712Z,20.20
2023-04-13T12:16:15.069Z,23.40
2023-04-13T12:18:49.830Z,29.20
2023-04-13T12:21:20.574Z,23.90
2023-04-13T12:23:54.757Z,25.40
2023-04-13T12:29:03.086Z,48.10
2023-04-13T12:31:36.662Z,23.20
2023-04-13T12:34:11.528Z,16.90
2023-04-13T12:36:39.852Z,26.90
2023-04-13T12:39:08.758Z,22.50
2023-04-13T12:41:37.149Z,30.80
2023-04-13T12:44:07.400Z,19.00
2023-04-13T12:46:37.221Z,24.80
2023-04-13T12:49:05.428Z,30.50
2023-04-13T12:51:35.256Z,22.10
2023-04-13T12:54:03.898Z,27.00
2023-04-13T12:56:33.681Z,73.40
2023-04-13T12:59:03.230Z,32.40
2023-04-13T13:01:32.033Z,30.00
2023-04-13T13:04:01.818Z,35.30
2023-04-13T13:06:30.404Z,34.00
2023-04-13T13:08:58.793Z,35.60
2023-04-13T13:11:28.418Z,31.30
2023-04-13T13:13:56.759Z,31.10
2023-04-13T13:16:32.996Z,37.00
2023-04-13T13:19:10.715Z,32.20
2023-04-13T13:21:39.660Z,31.90
2023-04-13T13:24:10.776Z,33.40
2023-04-13T13:27:00.048Z,32.20
2023-04-13T13:29:30.978Z,37.90
2023-04-13T13:31:59.945Z,36.80
2023-04-13T13:34:28.254Z,43.10
2023-04-13T13:36:59.118Z,37.90
2023-04-13T13:39:28.299Z,39.30
2023-04-13T13:41:57.429Z,39.20
2023-04-13T13:44:25.992Z,46.80
2023-04-13T13:46:54.860Z,39.60
2023-04-13T13:49:25.029Z,34.70
2023-04-13T13:52:11.930Z,42.60
2023-04-13T13:54:47.822Z,39.40
2023-04-13T13:57:18.235Z,48.20
2023-04-13T13:59:49.263Z,44.90
2023-04-13T14:02:19.385Z,44.90
2023-04-13T14:04:47.680Z,45.60
2023-04-13T14:07:16.112Z,41.10
2023-04-13T14:09:46.953Z,45.20
2023-04-13T14:12:16.239Z,42.90
2023-04-13T14:14:45.032Z,42.50
2023-04-13T14:19:33.198Z,45.30
2023-04-13T14:22:01.590Z,52.50
2023-04-13T14:24:30.893Z,55.30
2023-04-13T14:26:59.481Z,62.50
2023-04-13T14:29:27.621Z,65.50
2023-04-13T14:32:00.979Z,65.20
2023-04-13T14:34:30.250Z,71.00
2023-04-13T14:36:59.105Z,66.20
2023-04-13T14:39:29.525Z,244.20
2023-04-13T14:41:58.324Z,283.70
2023-04-13T14:44:27.150Z,113.90
2023-04-13T14:46:56.578Z,75.70
2023-04-13T14:49:24.791Z,72.40
2023-04-13T14:51:53.427Z,64.60
2023-04-13T14:54:23.166Z,59.10
2023-04-13T14:56:51.533Z,48.80
2023-04-13T14:59:20.171Z,37.90
2023-04-13T15:01:49.022Z,31.90
2023-04-13T15:04:19.742Z,38.80
2023-04-13T15:06:49.543Z,36.80
2023-04-13T15:09:18.087Z,32.90
2023-04-13T15:11:46.699Z,32.50
2023-04-13T15:14:15.806Z,26.40
2023-04-13T15:16:44.417Z,26.70
2023-04-13T15:19:12.788Z,26.50
2023-04-13T15:21:46.645Z,24.10
2023-04-13T15:24:15.316Z,25.80
2023-04-13T15:26:43.585Z,26.90
2023-04-13T15:29:12.977Z,19.70
2023-04-13T15:31:41.250Z,16.50
2023-04-13T15:34:09.561Z,26.70
2023-04-13T15:36:38.131Z,23.30
2023-04-13T15:39:06.498Z,19.70
2023-04-13T15:41:34.833Z,14.50
2023-04-13T15:44:03.553Z,12.10
2023-04-13T15:46:32.583Z,15.90
2023-04-13T15:49:01.553Z,15.90
2023-04-13T15:51:30.099Z,14.80
2023-04-13T15:53:58.965Z,14.00
2023-04-13T15:56:28.487Z,16.40
2023-04-13T15:58:56.655Z,14.80
2023-04-13T16:01:25.098Z,18.20
2023-04-13T16:03:55.953Z,18.80
2023-04-13T16:06:24.222Z,19.50
2023-04-13T16:09:00.416Z,21.40
2023-04-13T16:11:31.704Z,13.40
2023-04-13T16:14:07.687Z,11.40
2023-04-13T16:16:53.561Z,11.50
2023-04-13T16:19:23.312Z,12.90
2023-04-13T16:21:53.165Z,12.80
2023-04-13T16:24:25.238Z,13.60
2023-04-13T16:26:53.456Z,15.10
2023-04-13T16:29:22.150Z,15.00
2023-04-13T16:31:50.475Z,11.00
2023-04-13T16:34:26.253Z,12.10
2023-04-13T16:36:55.310Z,12.70
2023-04-13T16:39:24.125Z,11.20
2023-04-13T16:41:52.266Z,10.70
2023-04-13T16:44:20.519Z,10.10
2023-04-13T16:46:49.996Z,7.60
2023-04-13T16:49:18.255Z,7.10
2023-04-13T16:51:48.587Z,5.70
2023-04-13T16:54:18.230Z,4.40
2023-04-13T16:56:47.267Z,4.50
2023-04-13T16:59:15.510Z,5.00
2023-04-13T17:01:43.711Z,4.60
2023-04-13T17:04:12.638Z,3.50
2023-04-13T17:06:41.327Z,8.60
2023-04-13T17:09:10.037Z,4.30
2023-04-13T17:11:40.842Z,5.50
2023-04-13T17:14:09.223Z,4.50
2023-04-13T17:16:38.933Z,3.80
2023-04-13T17:19:07.539Z,4.80
2023-04-13T17:21:37.527Z,5.10
2023-04-13T17:24:06.241Z,4.20
2023-04-13T17:26:38.448Z,3.90
2023-04-13T17:29:07.724Z,4.00
2023-04-13T17:31:35.953Z,4.40
2023-04-13T17:34:04.581Z,4.30
2023-04-13T17:36:34.318Z,4.20
2023-04-13T17:39:02.648Z,4.00
2023-04-13T17:41:35.962Z,4.70
2023-04-13T17:44:07.281Z,5.10
2023-04-13T17:46:35.978Z,7.90
2023-04-13T17:49:04.253Z,4.60
2023-04-13T17:51:34.255Z,5.00
2023-04-13T17:54:05.286Z,5.50
2023-04-13T17:56:33.484Z,8.60
2023-04-13T17:59:02.531Z,9.50
2023-04-13T18:01:31.143Z,5.40
2023-04-13T18:04:02.798Z,5.80
2023-04-13T18:06:32.142Z,5.40
2023-04-13T18:09:00.985Z,8.20
2023-04-13T18:11:33.449Z,10.60
2023-04-13T18:14:02.494Z,11.10
2023-04-13T18:16:33.917Z,12.60
2023-04-13T18:19:02.207Z,10.80
2023-04-13T18:21:32.850Z,8.30
2023-04-13T18:24:02.186Z,8.60
2023-04-13T18:26:31.371Z,8.60
2023-04-13T18:29:00.742Z,6.90
2023-04-13T18:31:29.175Z,13.20
2023-04-13T18:33:57.775Z,9.60
2023-04-13T18:36:26.609Z,8.60
2023-04-13T18:38:57.925Z,6.00
2023-04-13T18:41:26.245Z,8.50
2023-04-13T18:43:56.882Z,7.10
2023-04-13T18:46:28.478Z,8.90
2023-04-13T18:48:56.837Z,8.40
2023-04-13T18:51:27.609Z,6.30
2023-04-13T18:53:57.575Z,6.70
2023-04-13T18:56:26.257Z,7.20
2023-04-13T18:58:54.748Z,7.20
2023-04-13T19:01:23.945Z,7.10
2023-04-13T19:03:53.711Z,7.50
2023-04-13T19:06:28.597Z,10.20
2023-04-13T19:08:57.230Z,11.10
2023-04-13T19:11:27.759Z,5.30
2023-04-13T19:13:56.266Z,6.90
2023-04-13T19:16:26.470Z,10.00
2023-04-13T19:18:55.474Z,7.60
2023-04-13T19:21:24.362Z,8.60
2023-04-13T19:23:54.701Z,8.20
2023-04-13T19:26:25.550Z,9.30
2023-04-13T19:28:57.184Z,8.90
2023-04-13T19:31:25.654Z,10.10
2023-04-13T19:33:53.933Z,11.80
2023-04-13T19:36:23.165Z,10.80
2023-04-13T19:38:53.159Z,9.00
2023-04-13T19:41:22.584Z,8.40
2023-04-13T19:43:51.095Z,8.00
2023-04-13T19:46:19.407Z,8.90
2023-04-13T19:48:49.232Z,9.20
2023-04-13T19:51:17.547Z,7.70
2023-04-13T19:53:48.409Z,8.30
2023-04-13T19:56:17.525Z,9.50
2023-04-13T19:58:46.599Z,9.10
2023-04-13T20:01:17.491Z,9.10
2023-04-13T20:03:47.922Z,10.40
2023-04-13T20:06:16.459Z,9.50
2023-04-13T20:08:45.088Z,10.60
2023-04-13T20:11:17.197Z,7.80
2023-04-13T20:13:47.661Z,10.60
2023-04-13T20:16:15.982Z,7.70
2023-04-13T20:18:46.004Z,7.70
2023-04-13T20:21:14.664Z,7.80
2023-04-13T20:23:43.000Z,6.90
2023-04-13T20:26:11.297Z,7.70
2023-04-13T20:28:39.617Z,8.10
2023-04-13T20:31:08.626Z,8.70
2023-04-13T20:33:38.524Z,6.80
2023-04-13T20:36:06.779Z,8.90
2023-04-13T20:38:36.561Z,7.70
2023-04-13T20:41:04.948Z,6.70
2023-04-13T20:43:33.454Z,7.60
2023-04-13T20:46:02.001Z,7.10
2023-04-13T20:51:06.418Z,6.70
2023-04-13T20:53:35.885Z,8.00
2023-04-13T20:56:04.625Z,8.20
2023-04-13T20:58:33.181Z,6.60
2023-04-13T21:01:01.617Z,8.00
2023-04-13T21:03:32.246Z,10.00
2023-04-13T21:06:01.134Z,9.50
2023-04-13T21:08:29.469Z,9.40
2023-04-13T21:10:58.261Z,8.50
2023-04-13T21:13:28.102Z,8.30
2023-04-13T21:15:56.226Z,7.30
2023-04-13T21:18:28.486Z,8.70
2023-04-13T21:20:58.180Z,9.20
2023-04-13T21:23:27.283Z,8.20
2023-04-13T21:25:56.748Z,10.60
2023-04-13T21:28:25.065Z,13.30
2023-04-13T21:30:53.217Z,12.20
2023-04-13T21:33:23.103Z,10.60
2023-04-13T21:35:51.268Z,11.70
2023-04-13T21:38:19.538Z,10.40
2023-04-13T21:40:47.813Z,9.90
2023-04-13T21:43:17.552Z,11.40
2023-04-13T21:45:46.982Z,11.60
2023-04-13T21:48:15.231Z,10.20
2023-04-13T21:50:44.142Z,11.30
2023-04-13T21:53:13.628Z,14.30
2023-04-13T21:55:42.148Z,12.40
2023-04-13T21:58:10.420Z,9.40
2023-04-13T22:00:38.675Z,13.80
2023-04-13T22:03:07.622Z,12.40
2023-04-13T22:05:36.149Z,11.80
2023-04-13T22:08:04.429Z,13.50
2023-04-13T22:10:33.988Z,12.80
2023-04-13T22:13:02.332Z,11.70
2023-04-13T22:15:32.067Z,12.10
2023-04-13T22:18:01.090Z,13.20
2023-04-13T22:20:29.689Z,13.10
2023-04-13T22:22:57.941Z,14.60
2023-04-13T22:25:28.263Z,13.60
2023-04-13T22:27:56.560Z,16.90
2023-04-13T22:30:27.472Z,11.60
2023-04-13T22:32:57.246Z,14.70
2023-04-13T22:35:26.768Z,16.20
2023-04-13T22:37:59.796Z,14.90
2023-04-13T22:40:28.216Z,14.10
2023-04-13T22:42:56.306Z,14.70
2023-04-13T22:45:26.433Z,13.30
2023-04-13T22:47:54.969Z,14.70
2023-04-13T22:50:23.617Z,15.10
2023-04-13T22:52:55.882Z,18.00
2023-04-13T22:55:26.006Z,15.20
2023-04-13T22:57:54.104Z,16.50
2023-04-13T23:00:22.293Z,15.90
2023-04-13T23:02:55.989Z,17.30
2023-04-13T23:05:24.622Z,16.90
2023-04-13T23:07:53.232Z,18.80
2023-04-13T23:10:21.930Z,20.30
2023-04-13T23:12:50.695Z,18.20
2023-04-13T23:15:19.045Z,18.60
2023-04-13T23:17:47.794Z,19.70
2023-04-13T23:20:16.285Z,18.10
2023-04-13T23:22:44.610Z,21.40
2023-04-13T23:25:13.460Z,20.40
2023-04-13T23:27:42.251Z,22.80
2023-04-13T23:30:10.859Z,17.20
2023-04-13T23:32:39.347Z,18.70
2023-04-13T23:35:07.875Z,18.30
2023-04-13T23:37:36.200Z,20.30
2023-04-13T23:40:05.537Z,21.10
2023-04-13T23:42:37.079Z,26.20
2023-04-13T23:45:05.697Z,17.50
2023-04-13T23:47:35.573Z,17.50
2023-04-13T23:50:03.942Z,21.80
2023-04-13T23:52:33.208Z,20.80
2023-04-13T23:55:01.705Z,20.70
2023-04-13T23:57:36.430Z,23.60
